Terminal Aerodrome Forecast
Issued by NWS Omaha/Valley, NE

Home | Current Version | Previous Version | Graphics & Text | Print | Product List | Glossary On
Versions: 1 2 3 4 5 6 7 8 9 10 11 12 13 14 15 16 17 18 19
000
FTUS43 KOAX 231220 AAA
TAFOFK
TAF AMD
KOFK 231220Z 2312/2412 33020G31KT P6SM -RA BKN070 OVC110
      WS020/33045KT
     FM231500 32022G35KT P6SM SCT150
     FM231900 32027G37KT P6SM BKN120
     FM240000 33015G22KT P6SM BKN100
     FM240300 32012KT P6SM SCT150 WS020/33040KT=

USA.gov is the U.S. government's official web portal to all federal, state and local government web resources and services.